createdAt,value
2024-02-08T00:02:25.070Z,20.39
2024-02-08T00:04:52.342Z,20.94
2024-02-08T00:07:19.440Z,20.60
2024-02-08T00:09:46.348Z,20.54
2024-02-08T00:12:13.348Z,21.13
2024-02-08T00:14:40.544Z,21.08
2024-02-08T00:17:07.726Z,20.51
2024-02-08T00:19:34.841Z,20.35
2024-02-08T00:22:02.108Z,20.51
2024-02-08T00:24:32.210Z,20.97
2024-02-08T00:26:59.859Z,20.66
2024-02-08T00:29:27.054Z,21.14
2024-02-08T00:31:54.080Z,20.92
2024-02-08T00:34:21.077Z,20.82
2024-02-08T00:36:50.567Z,21.06
2024-02-08T00:39:17.642Z,20.96
2024-02-08T00:41:51.349Z,21.20
2024-02-08T00:44:20.506Z,20.16
2024-02-08T00:46:47.476Z,20.18
2024-02-08T00:49:14.387Z,21.40
2024-02-08T00:51:41.279Z,20.65
2024-02-08T00:54:09.659Z,20.73
2024-02-08T00:56:36.619Z,19.61
2024-02-08T00:59:03.808Z,19.45
2024-02-08T01:01:33.357Z,19.79
2024-02-08T01:04:00.562Z,19.65
2024-02-08T01:06:29.386Z,19.17
2024-02-08T01:08:56.270Z,19.66
2024-02-08T01:11:24.257Z,19.26
2024-02-08T01:13:51.188Z,18.12
2024-02-08T01:16:18.095Z,18.48
2024-02-08T01:18:45.055Z,17.45
2024-02-08T01:21:12.104Z,17.03
2024-02-08T01:23:40.318Z,17.64
2024-02-08T01:26:10.581Z,17.58
2024-02-08T01:28:37.741Z,17.36
2024-02-08T01:31:05.047Z,17.05
2024-02-08T01:33:35.642Z,16.65
2024-02-08T01:36:02.899Z,17.25
2024-02-08T01:38:30.782Z,17.38
2024-02-08T01:40:57.665Z,17.72
2024-02-08T01:43:26.511Z,18.37
2024-02-08T01:45:53.504Z,18.67
2024-02-08T01:48:20.558Z,18.52
2024-02-08T01:50:57.564Z,19.08
2024-02-08T01:53:30.686Z,19.32
2024-02-08T01:56:02.521Z,19.63
2024-02-08T01:58:32.712Z,18.82
2024-02-08T02:01:02.002Z,18.66
2024-02-08T02:03:29.129Z,18.66
2024-02-08T02:05:56.106Z,18.22
2024-02-08T02:08:29.886Z,17.35
2024-02-08T02:11:18.344Z,18.28
2024-02-08T02:13:49.669Z,19.36
2024-02-08T02:16:16.842Z,19.50
2024-02-08T02:18:43.766Z,19.58
2024-02-08T02:21:15.308Z,19.13
2024-02-08T02:23:43.545Z,19.60
2024-02-08T02:26:13.510Z,19.49
2024-02-08T02:28:43.735Z,18.91
2024-02-08T02:31:14.913Z,19.49
2024-02-08T02:36:12.472Z,20.17
2024-02-08T02:38:39.430Z,20.36
2024-02-08T02:41:08.154Z,19.83
2024-02-08T02:43:37.604Z,19.84
2024-02-08T02:46:07.821Z,19.18
2024-02-08T02:48:42.104Z,19.88
2024-02-08T02:51:13.439Z,19.49
2024-02-08T02:53:43.901Z,19.75
2024-02-08T02:56:13.454Z,18.18
2024-02-08T02:58:41.268Z,17.74
2024-02-08T03:01:08.373Z,18.75
2024-02-08T03:03:39.797Z,19.34
2024-02-08T03:06:17.945Z,19.54
2024-02-08T03:08:47.434Z,19.90
2024-02-08T03:11:15.126Z,19.63
2024-02-08T03:13:45.327Z,18.79
2024-02-08T03:16:16.338Z,19.45
2024-02-08T03:18:47.806Z,18.88
2024-02-08T03:21:19.813Z,19.98
2024-02-08T03:23:49.342Z,19.34
2024-02-08T03:26:17.482Z,20.02
2024-02-08T03:28:47.595Z,21.09
2024-02-08T03:31:15.941Z,20.47
2024-02-08T03:33:45.299Z,20.27
2024-02-08T03:36:13.680Z,20.02
2024-02-08T03:38:41.379Z,20.52
2024-02-08T03:41:09.421Z,20.41
2024-02-08T03:43:36.793Z,19.92
2024-02-08T03:46:06.409Z,19.86
2024-02-08T03:48:34.023Z,20.23
2024-02-08T03:51:02.680Z,19.76
2024-02-08T03:53:30.822Z,20.37
2024-02-08T03:55:58.005Z,20.23
2024-02-08T03:58:25.583Z,20.04
2024-02-08T04:00:55.546Z,20.13
2024-02-08T04:03:27.135Z,20.87
2024-02-08T04:05:54.103Z,20.20
2024-02-08T04:08:34.263Z,20.22
2024-02-08T04:11:01.191Z,20.73
2024-02-08T04:13:46.756Z,20.41
2024-02-08T04:16:32.203Z,20.01
2024-02-08T04:19:18.908Z,19.42
2024-02-08T04:22:04.480Z,19.68
2024-02-08T04:24:49.909Z,19.62
2024-02-08T04:27:35.112Z,19.83
2024-02-08T04:30:20.500Z,19.23
2024-02-08T04:33:08.521Z,18.48
2024-02-08T04:35:53.760Z,18.68
2024-02-08T04:38:39.187Z,19.10
2024-02-08T04:41:24.724Z,18.83
2024-02-08T04:44:10.348Z,18.84
2024-02-08T04:46:56.002Z,18.21
2024-02-08T04:49:41.408Z,18.33
2024-02-08T04:52:26.894Z,18.28
2024-02-08T04:54:53.828Z,18.84
2024-02-08T04:57:20.728Z,19.56
2024-02-08T04:59:48.696Z,19.38
2024-02-08T05:02:16.743Z,20.31
2024-02-08T05:04:50.775Z,21.62
2024-02-08T05:07:18.124Z,21.42
2024-02-08T05:09:45.141Z,21.88
2024-02-08T05:12:12.738Z,22.22
2024-02-08T05:14:40.381Z,23.24
2024-02-08T05:17:10.812Z,24.44
2024-02-08T05:19:41.610Z,24.38
2024-02-08T05:22:12.588Z,24.40
2024-02-08T05:24:39.599Z,24.42
2024-02-08T05:27:06.481Z,24.02
2024-02-08T05:29:33.992Z,23.97
2024-02-08T05:32:00.966Z,24.60
2024-02-08T05:34:28.118Z,23.83
2024-02-08T05:36:57.309Z,23.96
2024-02-08T05:39:29.524Z,23.53
2024-02-08T05:41:58.915Z,23.77
2024-02-08T05:44:32.448Z,23.69
2024-02-08T05:47:10.649Z,22.93
2024-02-08T05:49:39.882Z,21.63
2024-02-08T05:52:08.375Z,22.29
2024-02-08T05:54:38.651Z,22.96
2024-02-08T05:57:08.933Z,21.94
2024-02-08T05:59:39.037Z,21.45
2024-02-08T06:02:17.145Z,20.85
2024-02-08T06:04:52.874Z,21.89
2024-02-08T06:07:22.123Z,21.72
2024-02-08T06:09:50.489Z,21.46
2024-02-08T06:12:29.966Z,22.09
2024-02-08T06:15:00.431Z,22.01
2024-02-08T06:17:34.687Z,22.12
2024-02-08T06:20:02.138Z,21.67
2024-02-08T06:22:30.739Z,22.61
2024-02-08T06:25:10.339Z,23.44
2024-02-08T06:27:39.345Z,24.54
2024-02-08T06:30:09.777Z,24.01
2024-02-08T06:32:46.909Z,23.07
2024-02-08T06:35:27.223Z,24.99
2024-02-08T06:38:04.249Z,23.04
2024-02-08T06:40:50.158Z,23.50
2024-02-08T06:43:19.708Z,24.67
2024-02-08T06:46:12.350Z,24.36
2024-02-08T06:48:42.575Z,24.85
2024-02-08T06:51:13.285Z,24.65
2024-02-08T06:54:01.255Z,24.48
2024-02-08T06:56:46.692Z,23.61
2024-02-08T06:59:32.038Z,22.92
2024-02-08T07:02:17.458Z,23.49
2024-02-08T07:05:04.310Z,23.91
2024-02-08T07:07:49.849Z,24.52
2024-02-08T07:10:35.557Z,24.84
2024-02-08T07:13:21.038Z,25.08
2024-02-08T07:16:07.387Z,24.62
2024-02-08T07:18:58.360Z,25.47
2024-02-08T07:21:48.418Z,25.62
2024-02-08T07:24:33.588Z,25.68
2024-02-08T07:27:19.022Z,25.72
2024-02-08T07:30:04.379Z,25.92
2024-02-08T07:32:49.553Z,25.81
2024-02-08T07:35:35.034Z,26.29
2024-02-08T07:38:01.958Z,27.24
2024-02-08T07:40:29.024Z,26.77
2024-02-08T07:43:17.176Z,27.12
2024-02-08T07:45:53.524Z,26.94
2024-02-08T07:48:39.876Z,27.21
2024-02-08T07:51:07.749Z,26.30
2024-02-08T07:53:47.368Z,27.15
2024-02-08T07:56:21.976Z,27.27
2024-02-08T07:58:50.402Z,27.18
2024-02-08T08:01:22.102Z,26.90
2024-02-08T08:03:51.194Z,27.08
2024-02-08T08:06:18.311Z,26.89
2024-02-08T08:08:56.301Z,27.09
2024-02-08T08:11:27.091Z,26.46
2024-02-08T08:13:54.006Z,27.32
2024-02-08T08:16:30.257Z,26.26
2024-02-08T08:19:10.036Z,25.98
2024-02-08T08:21:59.228Z,26.38
2024-02-08T08:24:27.339Z,25.47
2024-02-08T08:27:14.087Z,26.37
2024-02-08T08:29:44.349Z,26.09
2024-02-08T08:32:31.046Z,26.52
2024-02-08T08:35:21.200Z,25.70
2024-02-08T08:38:08.619Z,25.72
2024-02-08T08:40:40.252Z,25.43
2024-02-08T08:43:12.093Z,24.66
2024-02-08T08:45:42.287Z,24.67
2024-02-08T08:48:09.491Z,24.99
2024-02-08T08:50:36.595Z,25.26
2024-02-08T08:53:18.336Z,25.80
2024-02-08T08:55:51.283Z,25.00
2024-02-08T08:58:24.039Z,24.33
2024-02-08T09:01:00.544Z,23.44
2024-02-08T09:03:28.174Z,24.70
2024-02-08T09:05:59.246Z,25.05
2024-02-08T09:08:44.431Z,25.05
2024-02-08T09:11:15.941Z,24.76
2024-02-08T09:13:52.608Z,24.37
2024-02-08T09:16:24.142Z,24.19
2024-02-08T09:19:03.612Z,24.25
2024-02-08T09:21:37.452Z,23.12
2024-02-08T09:24:08.167Z,23.51
2024-02-08T09:26:50.281Z,23.04
2024-02-08T09:29:31.555Z,22.37
2024-02-08T09:32:17.265Z,21.72
2024-02-08T09:34:44.926Z,21.24
2024-02-08T09:37:12.620Z,21.17
2024-02-08T09:39:55.392Z,20.79
2024-02-08T09:42:39.324Z,20.18
2024-02-08T09:45:36.335Z,19.48
2024-02-08T09:48:08.243Z,19.01
2024-02-08T09:50:44.912Z,18.11
2024-02-08T09:53:19.687Z,17.98
2024-02-08T09:55:57.251Z,17.71
2024-02-08T09:58:42.733Z,16.93
2024-02-08T10:01:32.166Z,16.24
2024-02-08T10:04:07.435Z,15.92
2024-02-08T10:06:43.121Z,15.35
2024-02-08T10:09:30.218Z,15.26
2024-02-08T10:12:00.857Z,15.61
2024-02-08T10:14:34.192Z,14.89
2024-02-08T10:17:19.511Z,14.66
2024-02-08T10:20:19.975Z,15.32
2024-02-08T10:22:55.664Z,15.08
2024-02-08T10:25:46.258Z,15.69
2024-02-08T10:28:24.894Z,15.07
2024-02-08T10:31:07.082Z,15.15
2024-02-08T10:33:39.708Z,14.89
2024-02-08T10:36:16.787Z,15.30
2024-02-08T10:38:59.526Z,14.66
2024-02-08T10:41:37.068Z,14.27
2024-02-08T10:44:06.648Z,14.49
2024-02-08T10:46:35.569Z,15.01
2024-02-08T10:49:10.764Z,14.46
2024-02-08T10:51:44.974Z,14.36
2024-02-08T10:54:16.758Z,13.57
2024-02-08T10:57:08.344Z,13.31
2024-02-08T10:59:49.130Z,12.17
2024-02-08T11:02:34.868Z,11.92
2024-02-08T11:05:22.539Z,11.82
2024-02-08T11:07:50.365Z,11.55
2024-02-08T11:10:25.495Z,10.96
2024-02-08T11:13:02.555Z,11.61
2024-02-08T11:15:33.359Z,11.61
2024-02-08T11:18:07.216Z,10.90
2024-02-08T11:20:45.109Z,11.12
2024-02-08T11:23:25.457Z,11.66
2024-02-08T11:25:57.871Z,11.51
2024-02-08T11:28:29.821Z,11.82
2024-02-08T11:30:56.954Z,12.40
2024-02-08T11:33:34.696Z,11.96
2024-02-08T11:36:18.197Z,12.63
2024-02-08T11:38:55.435Z,12.10
2024-02-08T11:41:27.340Z,12.81
2024-02-08T11:44:04.991Z,12.19
2024-02-08T11:46:47.997Z,12.26
2024-02-08T11:49:33.582Z,11.72
2024-02-08T11:52:12.682Z,11.57
2024-02-08T11:54:41.834Z,11.40
2024-02-08T11:57:14.391Z,11.27
2024-02-08T11:59:46.897Z,11.29
2024-02-08T12:02:18.420Z,10.90
2024-02-08T12:04:51.312Z,10.90
2024-02-08T12:07:21.787Z,11.05
2024-02-08T12:10:01.820Z,11.19
2024-02-08T12:12:31.666Z,11.11
2024-02-08T12:15:01.770Z,11.35
2024-02-08T12:17:29.575Z,11.82
2024-02-08T12:20:02.481Z,11.39
2024-02-08T12:22:31.963Z,10.91
2024-02-08T12:25:03.991Z,10.84
2024-02-08T12:27:32.446Z,11.07
2024-02-08T12:30:02.420Z,10.94
2024-02-08T12:32:32.343Z,11.16
2024-02-08T12:35:15.126Z,10.94
2024-02-08T12:37:47.540Z,11.49
2024-02-08T12:40:19.430Z,11.23
2024-02-08T12:42:48.205Z,11.20
2024-02-08T12:45:18.829Z,11.37
2024-02-08T12:47:51.179Z,11.25
2024-02-08T12:50:25.791Z,10.80
2024-02-08T12:52:57.269Z,11.24
2024-02-08T12:55:25.053Z,10.55
2024-02-08T12:58:05.064Z,10.38
2024-02-08T13:00:39.023Z,10.77
2024-02-08T13:03:10.376Z,10.44
2024-02-08T13:05:43.511Z,10.17
2024-02-08T13:08:17.881Z,11.02
2024-02-08T13:10:56.061Z,11.43
2024-02-08T13:13:25.282Z,11.75
2024-02-08T13:16:02.808Z,12.60
2024-02-08T13:18:32.953Z,12.51
2024-02-08T13:21:01.862Z,13.02
2024-02-08T13:23:28.960Z,12.73
2024-02-08T13:25:58.419Z,12.74
2024-02-08T13:28:26.514Z,12.74
2024-02-08T13:30:58.614Z,12.94
2024-02-08T13:33:29.988Z,12.97
2024-02-08T13:35:57.121Z,12.75
2024-02-08T13:38:24.567Z,12.68
2024-02-08T13:41:00.972Z,13.86
2024-02-08T13:43:32.234Z,12.79
2024-02-08T13:46:02.034Z,12.46
2024-02-08T13:48:30.909Z,13.13
2024-02-08T13:50:59.456Z,12.87
2024-02-08T13:53:29.745Z,13.21
2024-02-08T13:55:57.087Z,13.45
2024-02-08T13:58:27.844Z,13.95
2024-02-08T14:01:00.095Z,16.42
2024-02-08T14:03:31.532Z,14.93
2024-02-08T14:06:01.412Z,13.84
2024-02-08T14:08:29.983Z,13.66
2024-02-08T14:10:59.959Z,13.66
2024-02-08T14:13:31.456Z,14.36
2024-02-08T14:16:07.188Z,14.89
2024-02-08T14:18:38.894Z,14.30
2024-02-08T14:21:10.094Z,13.91
2024-02-08T14:23:42.557Z,14.09
2024-02-08T14:26:10.478Z,14.37
2024-02-08T14:28:44.266Z,14.65
2024-02-08T14:31:12.039Z,14.52
2024-02-08T14:33:47.761Z,14.98
2024-02-08T14:36:19.919Z,15.37
2024-02-08T14:38:48.435Z,15.50
2024-02-08T14:41:28.458Z,15.28
2024-02-08T14:44:08.062Z,14.65
2024-02-08T14:46:43.463Z,15.51
2024-02-08T14:49:18.121Z,14.78
2024-02-08T14:51:49.932Z,14.61
2024-02-08T14:54:27.316Z,14.69
2024-02-08T14:57:07.143Z,14.71
2024-02-08T14:59:46.897Z,14.85
2024-02-08T15:02:20.906Z,14.78
2024-02-08T15:04:54.387Z,15.01
2024-02-08T15:07:41.294Z,14.86
2024-02-08T15:10:11.590Z,14.80
2024-02-08T15:12:53.254Z,14.92
2024-02-08T15:15:31.750Z,14.18
2024-02-08T15:18:13.770Z,15.39
2024-02-08T15:20:48.334Z,15.56
2024-02-08T15:23:50.082Z,15.39
2024-02-08T15:26:26.813Z,15.12
2024-02-08T15:28:58.784Z,15.83
2024-02-08T15:31:36.169Z,16.03
2024-02-08T15:34:07.421Z,15.65
2024-02-08T15:36:48.991Z,16.13
2024-02-08T15:39:28.533Z,15.26
2024-02-08T15:42:02.732Z,15.30
2024-02-08T15:44:36.387Z,15.30
2024-02-08T15:47:14.233Z,14.43
2024-02-08T15:49:45.235Z,14.16
2024-02-08T15:52:16.846Z,14.01
2024-02-08T15:54:46.582Z,14.20
2024-02-08T15:57:14.670Z,13.29
2024-02-08T15:59:47.704Z,13.46
2024-02-08T16:02:18.725Z,13.52
2024-02-08T16:04:52.235Z,13.34
2024-02-08T16:07:29.453Z,13.18
2024-02-08T16:10:00.236Z,13.05
2024-02-08T16:12:30.524Z,12.47
2024-02-08T16:15:09.684Z,12.89
2024-02-08T16:17:38.286Z,11.79
2024-02-08T16:20:16.900Z,11.71
2024-02-08T16:22:54.152Z,11.81
2024-02-08T16:25:42.202Z,11.64
2024-02-08T16:28:15.631Z,11.80
2024-02-08T16:30:53.160Z,11.60
2024-02-08T16:33:34.624Z,12.31
2024-02-08T16:36:22.695Z,11.81
2024-02-08T16:39:08.390Z,11.38
2024-02-08T16:41:49.651Z,11.86
2024-02-08T16:44:18.407Z,11.51
2024-02-08T16:46:55.083Z,11.87
2024-02-08T16:49:29.096Z,11.88
2024-02-08T16:51:57.362Z,12.02
2024-02-08T16:54:27.353Z,12.26
2024-02-08T16:56:57.625Z,12.83
2024-02-08T16:59:36.712Z,12.36
2024-02-08T17:02:09.454Z,13.01
2024-02-08T17:04:49.624Z,12.63
2024-02-08T17:07:38.689Z,13.15
2024-02-08T17:10:07.596Z,14.36
2024-02-08T17:12:53.090Z,15.53
2024-02-08T17:15:28.514Z,15.36
2024-02-08T17:18:13.825Z,14.32
2024-02-08T17:21:06.942Z,14.36
2024-02-08T17:23:44.394Z,13.73
2024-02-08T17:26:28.005Z,13.89
2024-02-08T17:29:14.189Z,13.66
2024-02-08T17:31:45.105Z,13.68
2024-02-08T17:34:23.536Z,13.93
2024-02-08T17:36:55.782Z,13.89
2024-02-08T17:39:26.320Z,14.25
2024-02-08T17:41:53.957Z,14.19
2024-02-08T17:44:20.907Z,14.31
2024-02-08T17:46:54.358Z,14.47
2024-02-08T17:49:21.866Z,14.31
2024-02-08T17:51:51.332Z,14.15
2024-02-08T17:54:26.600Z,14.29
2024-02-08T17:56:59.142Z,14.57
2024-02-08T17:59:26.008Z,15.10
2024-02-08T18:01:57.139Z,15.17
2024-02-08T18:04:29.655Z,15.77
2024-02-08T18:07:00.355Z,17.34
2024-02-08T18:09:40.957Z,17.61
2024-02-08T18:12:14.633Z,17.00
2024-02-08T18:14:42.853Z,17.24
2024-02-08T18:17:20.553Z,17.21
2024-02-08T18:19:48.240Z,17.14
2024-02-08T18:22:16.151Z,17.32
2024-02-08T18:24:49.417Z,16.56
2024-02-08T18:27:23.598Z,16.90
2024-02-08T18:29:52.472Z,16.93
2024-02-08T18:32:20.443Z,16.63
2024-02-08T18:34:50.595Z,16.71
2024-02-08T18:37:27.360Z,16.93
2024-02-08T18:39:56.041Z,16.01
2024-02-08T18:42:26.112Z,15.97
2024-02-08T18:44:53.085Z,14.82
2024-02-08T18:47:20.280Z,14.41
2024-02-08T18:50:08.157Z,14.65
2024-02-08T18:52:37.842Z,14.81
2024-02-08T18:55:11.394Z,14.95
2024-02-08T18:57:38.485Z,14.67
2024-02-08T19:00:14.792Z,15.37
2024-02-08T19:02:42.114Z,15.60
2024-02-08T19:05:10.542Z,15.22
2024-02-08T19:07:38.325Z,15.22
2024-02-08T19:10:08.548Z,14.86
2024-02-08T19:12:38.455Z,15.99
2024-02-08T19:15:08.016Z,15.68
2024-02-08T19:17:35.745Z,15.96
2024-02-08T19:20:06.468Z,15.79
2024-02-08T19:22:34.204Z,15.15
2024-02-08T19:25:01.388Z,15.67
2024-02-08T19:27:30.206Z,16.02
2024-02-08T19:29:57.088Z,15.75
2024-02-08T19:32:25.548Z,16.04
2024-02-08T19:34:53.178Z,16.55
2024-02-08T19:37:22.512Z,16.87
2024-02-08T19:39:56.279Z,17.55
2024-02-08T19:42:23.785Z,16.55
2024-02-08T19:44:55.117Z,16.89
2024-02-08T19:47:28.822Z,17.15
2024-02-08T19:50:06.880Z,18.02
2024-02-08T19:52:41.667Z,18.80
2024-02-08T19:55:16.718Z,18.91
2024-02-08T19:57:49.188Z,19.74
2024-02-08T20:00:23.210Z,19.77
2024-02-08T20:02:54.081Z,20.15
2024-02-08T20:05:24.594Z,19.97
2024-02-08T20:07:52.393Z,20.12
2024-02-08T20:10:20.998Z,20.58
2024-02-08T20:12:50.248Z,21.35
2024-02-08T20:15:18.437Z,22.60
2024-02-08T20:17:47.169Z,22.91
2024-02-08T20:20:23.818Z,22.95
2024-02-08T20:22:55.460Z,23.27
2024-02-08T20:25:35.069Z,23.49
2024-02-08T20:28:07.738Z,23.53
2024-02-08T20:30:37.567Z,23.73
2024-02-08T20:33:06.736Z,23.94
2024-02-08T20:35:33.970Z,24.55
2024-02-08T20:38:01.322Z,23.91
2024-02-08T20:40:29.810Z,23.07
2024-02-08T20:43:00.749Z,23.22
2024-02-08T20:45:28.737Z,22.77
2024-02-08T20:47:55.828Z,23.61
2024-02-08T20:50:23.165Z,23.49
2024-02-08T20:52:51.144Z,23.53
2024-02-08T20:55:36.544Z,23.52
2024-02-08T20:58:05.879Z,22.46
2024-02-08T21:00:33.164Z,22.39
2024-02-08T21:03:03.347Z,22.08
2024-02-08T21:05:30.428Z,22.00
2024-02-08T21:07:58.806Z,21.82
2024-02-08T21:10:27.160Z,21.79
2024-02-08T21:12:54.292Z,23.48
2024-02-08T21:15:24.535Z,23.01
2024-02-08T21:17:51.661Z,23.57
2024-02-08T21:20:19.310Z,23.57
2024-02-08T21:22:49.808Z,23.27
2024-02-08T21:25:16.977Z,23.45
2024-02-08T21:27:45.813Z,23.43
2024-02-08T21:30:13.914Z,23.12
2024-02-08T21:32:41.810Z,21.25
2024-02-08T21:35:15.539Z,21.52
2024-02-08T21:37:42.611Z,14.26
2024-02-08T21:40:09.920Z,8.03
2024-02-08T21:42:37.018Z,5.86
2024-02-08T21:45:04.325Z,5.70
2024-02-08T21:47:31.280Z,5.47
2024-02-08T21:49:58.517Z,5.62
2024-02-08T21:52:27.742Z,5.58
2024-02-08T21:54:57.615Z,5.68
2024-02-08T21:57:25.527Z,5.34
2024-02-08T21:59:52.488Z,5.73
2024-02-08T22:02:19.726Z,5.81
2024-02-08T22:04:46.876Z,5.89
2024-02-08T22:07:14.541Z,5.67
2024-02-08T22:09:46.554Z,5.68
2024-02-08T22:12:13.591Z,5.25
2024-02-08T22:14:41.132Z,5.39
2024-02-08T22:17:11.146Z,5.37
2024-02-08T22:19:45.301Z,5.01
2024-02-08T22:22:16.883Z,5.04
2024-02-08T22:24:44.028Z,5.05
2024-02-08T22:27:11.668Z,5.25
2024-02-08T22:29:40.050Z,5.00
2024-02-08T22:32:08.558Z,5.40
2024-02-08T22:34:36.112Z,5.38
2024-02-08T22:37:06.018Z,5.61
2024-02-08T22:39:33.413Z,5.87
2024-02-08T22:42:01.292Z,5.48
2024-02-08T22:44:31.314Z,5.19
2024-02-08T22:46:58.372Z,5.40
2024-02-08T22:49:26.782Z,5.36
2024-02-08T22:51:54.132Z,5.50
2024-02-08T22:54:25.490Z,5.39
2024-02-08T22:56:52.906Z,5.51
2024-02-08T22:59:23.304Z,5.93
2024-02-08T23:01:56.757Z,6.03
2024-02-08T23:04:24.714Z,6.80
2024-02-08T23:06:53.244Z,7.63
2024-02-08T23:09:20.817Z,7.94
2024-02-08T23:11:51.716Z,7.54
2024-02-08T23:14:20.757Z,6.57
2024-02-08T23:16:53.141Z,5.52
2024-02-08T23:19:21.362Z,5.62
2024-02-08T23:21:54.613Z,5.46
2024-02-08T23:24:25.270Z,5.06
2024-02-08T23:26:53.028Z,4.85
2024-02-08T23:29:22.999Z,4.99
2024-02-08T23:31:52.775Z,4.97
2024-02-08T23:34:49.055Z,4.53
2024-02-08T23:37:19.544Z,4.52
2024-02-08T23:39:46.613Z,4.47
2024-02-08T23:42:16.092Z,4.39
2024-02-08T23:44:43.146Z,4.25
2024-02-08T23:47:19.052Z,4.25
2024-02-08T23:49:46.276Z,4.31
2024-02-08T23:52:13.697Z,4.06
2024-02-08T23:54:41.957Z,4.31
2024-02-08T23:57:09.081Z,3.96
2024-02-08T23:59:36.153Z,3.82
